createdAt,value
2022-11-04T12:19:56.898Z,21984.00
2022-11-04T12:20:56.853Z,22432.00
2022-11-04T12:21:56.850Z,23488.00
2022-11-04T12:22:56.826Z,24256.00
2022-11-04T12:23:56.822Z,24800.00
2022-11-04T12:24:56.786Z,26496.00
2022-11-04T12:25:56.760Z,27264.00
2022-11-04T12:26:56.747Z,26912.00
2022-11-04T12:27:56.834Z,26272.00
2022-11-04T12:28:56.704Z,21440.00
2022-11-04T12:29:56.698Z,25952.00
2022-11-04T12:30:56.676Z,28288.00
2022-11-04T12:31:56.669Z,29856.00
2022-11-04T12:32:56.634Z,29344.00
2022-11-04T12:33:56.630Z,20480.00
2022-11-04T12:34:56.611Z,13992.00
2022-11-04T12:35:56.669Z,10752.00
2022-11-04T12:36:56.566Z,18752.00
2022-11-04T12:37:56.551Z,30464.00
2022-11-04T12:38:56.541Z,22496.00
2022-11-04T12:39:56.523Z,25792.00
2022-11-04T12:41:26.180Z,18432.00
2022-11-04T12:42:20.161Z,27328.00
2022-11-04T12:42:56.465Z,27168.00
2022-11-04T12:43:56.459Z,27008.00
2022-11-04T12:44:56.441Z,27872.00
2022-11-04T12:45:56.430Z,25344.00
2022-11-04T12:46:56.406Z,18144.00
2022-11-04T12:48:24.385Z,13588.00
2022-11-04T12:49:24.368Z,20640.00
2022-11-04T12:50:24.339Z,17536.00
2022-11-04T12:51:24.326Z,30176.00
2022-11-04T12:52:24.307Z,23680.00
2022-11-04T12:53:24.293Z,28832.00
2022-11-04T12:54:24.288Z,25984.00
2022-11-04T12:55:24.278Z,32480.00
2022-11-04T12:56:24.263Z,34976.00
2022-11-04T12:57:24.237Z,32704.00
2022-11-04T12:58:24.209Z,30656.00
2022-11-04T12:59:24.207Z,16832.00
2022-11-04T13:00:24.204Z,21440.00
2022-11-04T13:01:24.292Z,14288.00
2022-11-04T13:02:24.223Z,11652.00
2022-11-04T13:07:05.653Z,10356.00
2022-11-04T13:08:08.680Z,15520.00
2022-11-04T13:09:05.581Z,24032.00
2022-11-04T13:10:05.565Z,18368.00
2022-11-04T13:11:05.551Z,15552.00
2022-11-04T13:12:05.526Z,12560.00
2022-11-04T13:13:05.515Z,9400.00
2022-11-04T13:57:16.571Z,9752.00
2022-11-04T13:58:16.551Z,10160.00
2022-11-04T13:59:16.597Z,10884.00
2022-11-04T14:00:16.515Z,9224.00
2022-11-04T14:01:16.589Z,7560.00
2022-11-04T14:02:16.532Z,8232.00
2022-11-04T14:03:16.530Z,8248.00
2022-11-04T14:04:16.439Z,8036.00
2022-11-04T14:05:16.418Z,7012.00
2022-11-04T14:06:16.404Z,5952.00
